createdAt,value
2018-02-06T12:51:13.975Z,15.03
2018-02-06T12:54:17.278Z,16.10
2018-02-06T12:57:20.580Z,21.73
2018-02-06T13:00:23.904Z,20.97
2018-02-06T13:03:27.213Z,16.73
2018-02-06T13:06:31.296Z,14.97
2018-02-06T13:09:34.587Z,13.47
2018-02-06T13:12:37.872Z,14.23
2018-02-06T13:15:41.136Z,13.00
2018-02-06T13:18:44.408Z,13.33
2018-02-06T13:21:47.848Z,11.73
2018-02-06T13:24:51.892Z,11.30
2018-02-06T13:27:55.166Z,13.63
2018-02-06T13:30:59.199Z,12.07
2018-02-06T13:34:02.482Z,13.70
2018-02-06T13:37:06.530Z,18.17
2018-02-06T13:40:09.824Z,16.40
2018-02-06T13:43:13.137Z,17.53
2018-02-06T13:46:16.394Z,15.90
2018-02-06T13:49:19.681Z,17.20
2018-02-06T13:52:23.757Z,15.63
2018-02-06T13:55:27.060Z,16.30
2018-02-06T13:58:30.338Z,19.67
2018-02-06T14:01:33.604Z,15.27
2018-02-06T14:04:36.876Z,13.83
2018-02-06T14:07:40.156Z,13.53
2018-02-06T14:10:43.457Z,19.00
2018-02-06T14:13:46.815Z,17.67
2018-02-06T14:16:50.086Z,18.10
2018-02-06T14:19:54.147Z,14.60
2018-02-06T14:22:57.604Z,15.23
2018-02-06T14:26:01.030Z,15.73
2018-02-06T14:29:04.395Z,17.67
2018-02-06T14:32:08.452Z,16.83
2018-02-06T14:35:11.724Z,13.40
2018-02-06T14:38:18.409Z,12.87
2018-02-06T14:41:21.718Z,13.60
2018-02-06T14:44:25.022Z,16.77
2018-02-06T14:47:28.319Z,15.83
2018-02-06T14:50:31.605Z,13.30
2018-02-06T14:53:34.898Z,17.10
2018-02-06T14:56:38.176Z,13.53
2018-02-06T14:59:42.257Z,13.00
2018-02-06T15:02:45.520Z,12.30
2018-02-06T15:05:48.924Z,15.97
2018-02-06T15:08:52.233Z,16.10
2018-02-06T15:11:55.550Z,14.07
2018-02-06T15:14:58.846Z,12.30
2018-02-06T15:18:02.155Z,16.43
2018-02-06T15:21:05.453Z,16.67
2018-02-06T15:24:08.745Z,13.10
2018-02-06T15:27:12.021Z,19.43
2018-02-06T15:30:15.281Z,15.67
2018-02-06T15:33:18.571Z,14.77
2018-02-06T15:36:23.508Z,17.57
2018-02-06T15:39:27.122Z,15.23
2018-02-06T15:42:30.483Z,18.17
2018-02-06T15:45:33.813Z,15.70
2018-02-06T15:48:38.040Z,14.50
2018-02-06T15:51:41.440Z,15.47
2018-02-06T15:54:45.478Z,17.03
2018-02-06T15:57:48.825Z,16.97
2018-02-06T16:00:52.871Z,18.20
2018-02-06T16:03:56.216Z,19.07
2018-02-06T16:06:59.541Z,21.97
2018-02-06T16:10:31.760Z,19.13
2018-02-06T16:13:35.989Z,18.40
2018-02-06T16:16:39.719Z,20.33
2018-02-06T16:19:43.199Z,16.53
2018-02-06T16:22:46.524Z,21.00
2018-02-06T16:25:49.802Z,21.03
2018-02-06T16:28:53.116Z,18.30
2018-02-06T16:32:09.203Z,21.37
2018-02-06T16:35:14.209Z,20.83
2018-02-06T16:38:17.517Z,17.70
2018-02-06T16:41:20.805Z,21.50
2018-02-06T16:44:24.124Z,20.83
2018-02-06T16:47:27.414Z,21.70
2018-02-06T16:50:32.980Z,23.57
2018-02-06T16:53:36.289Z,17.27
2018-02-06T16:56:39.612Z,20.03
2018-02-06T16:59:42.935Z,20.13
2018-02-06T17:02:46.337Z,20.97
2018-02-06T17:05:50.428Z,25.83
2018-02-06T17:08:53.767Z,24.27
2018-02-06T17:11:57.836Z,22.80
2018-02-06T17:15:01.128Z,21.83
2018-02-06T17:18:04.458Z,22.87
2018-02-06T17:21:07.752Z,19.70
2018-02-06T17:24:11.057Z,19.63
2018-02-06T17:27:15.131Z,21.20
2018-02-06T17:30:19.415Z,22.00
2018-02-06T17:33:23.540Z,27.13
2018-02-06T17:36:27.626Z,24.53
2018-02-06T17:39:30.921Z,19.10
2018-02-06T17:42:34.217Z,25.13
2018-02-06T17:45:38.301Z,21.77
2018-02-06T17:48:41.656Z,24.30
2018-02-06T17:51:45.761Z,22.67
2018-02-06T17:54:49.172Z,26.50
2018-02-06T17:57:53.872Z,23.30
2018-02-06T18:00:57.155Z,25.27
2018-02-06T18:04:00.534Z,22.37
2018-02-06T18:07:03.881Z,23.07
2018-02-06T18:10:07.200Z,23.10
2018-02-06T18:13:11.705Z,20.05
2018-02-06T18:16:15.927Z,23.27
2018-02-06T18:19:19.255Z,22.63
2018-02-06T18:22:22.550Z,26.03
2018-02-06T18:25:25.854Z,23.40
2018-02-06T18:28:29.181Z,23.87
2018-02-06T18:31:32.481Z,24.80
2018-02-06T18:34:36.573Z,23.10
2018-02-06T18:37:39.890Z,24.40
2018-02-06T18:40:43.300Z,24.87
2018-02-06T18:43:46.625Z,21.62
2018-02-06T18:46:50.701Z,24.33
2018-02-06T18:50:10.174Z,28.37
2018-02-06T18:53:14.471Z,22.57
2018-02-06T18:56:18.199Z,18.62
2018-02-06T18:59:21.532Z,18.77
2018-02-06T19:02:25.755Z,20.87
2018-02-06T19:05:29.080Z,19.80
2018-02-06T19:08:33.717Z,22.17
2018-02-06T19:11:37.027Z,30.70
2018-02-06T19:14:40.381Z,24.93
2018-02-06T19:17:43.681Z,29.30
2018-02-06T19:20:46.956Z,25.85
2018-02-06T19:23:50.264Z,22.58
2018-02-06T19:26:53.542Z,20.33
2018-02-06T19:29:56.825Z,27.57
2018-02-06T19:33:00.114Z,26.37
2018-02-06T19:36:03.494Z,27.15
2018-02-06T19:39:07.592Z,29.60
2018-02-06T19:42:10.927Z,29.40
2018-02-06T19:45:14.984Z,26.60
2018-02-06T19:48:19.208Z,26.73
2018-02-06T19:51:22.549Z,35.77
2018-02-06T19:54:26.586Z,26.47
2018-02-06T19:57:29.928Z,23.27
2018-02-06T20:00:33.997Z,27.43
2018-02-06T20:03:37.284Z,23.53
2018-02-06T20:06:41.439Z,36.47
2018-02-06T20:09:47.064Z,60.87
2018-02-06T20:12:50.452Z,57.10
2018-02-06T20:15:54.484Z,33.17
2018-02-06T20:18:57.805Z,36.13
2018-02-06T20:22:01.373Z,29.77
2018-02-06T20:25:05.482Z,33.03
2018-02-06T20:28:09.634Z,24.80
2018-02-06T20:31:13.495Z,22.20
2018-02-06T20:34:17.680Z,21.60
2018-02-06T20:37:21.118Z,25.83
2018-02-06T20:40:24.435Z,23.12
2018-02-06T20:43:28.486Z,20.87
2018-02-06T20:46:32.066Z,21.37
2018-02-06T20:49:35.415Z,18.90
2018-02-06T20:52:38.738Z,20.33
2018-02-06T20:55:42.064Z,21.53
2018-02-06T20:58:45.354Z,20.43
2018-02-06T21:01:57.461Z,25.30
2018-02-06T21:05:01.562Z,26.92
2018-02-06T21:08:05.678Z,20.17
2018-02-06T21:11:09.745Z,31.27
2018-02-06T21:14:14.265Z,23.96
2018-02-06T21:17:17.566Z,19.70
2018-02-06T21:20:21.017Z,21.67
2018-02-06T21:23:24.303Z,25.33
2018-02-06T21:26:27.586Z,22.00
2018-02-06T21:29:31.031Z,25.50
2018-02-06T21:32:35.076Z,19.52
2018-02-06T21:35:38.439Z,17.50
2018-02-06T21:38:42.514Z,25.77
2018-02-06T21:41:45.936Z,32.40
2018-02-06T21:44:49.285Z,27.05
2018-02-06T21:47:52.614Z,25.37
2018-02-06T21:50:55.905Z,21.20
2018-02-06T21:53:59.202Z,31.03
2018-02-06T21:57:02.697Z,23.63
2018-02-06T22:00:06.013Z,26.87
2018-02-06T22:03:09.306Z,27.47
2018-02-06T22:06:12.578Z,31.27
2018-02-06T22:09:15.940Z,22.27
2018-02-06T22:12:19.982Z,23.35
2018-02-06T22:15:23.282Z,21.87
2018-02-06T22:18:26.640Z,24.30
2018-02-06T22:21:29.928Z,19.10
2018-02-06T22:24:33.201Z,18.47
2018-02-06T22:27:37.202Z,16.60
2018-02-06T22:30:40.505Z,27.20
2018-02-06T22:33:43.976Z,34.03
2018-02-06T22:36:48.013Z,30.07
2018-02-06T22:39:51.293Z,31.67
2018-02-06T22:42:54.681Z,32.37
2018-02-06T22:45:58.725Z,37.90
2018-02-06T22:49:02.014Z,27.20
2018-02-06T22:52:05.295Z,33.27
2018-02-06T22:55:08.584Z,24.90
2018-02-06T22:58:11.875Z,20.50
2018-02-06T23:01:16.986Z,29.23
2018-02-06T23:04:20.262Z,27.90
2018-02-06T23:07:23.555Z,24.07
2018-02-06T23:10:26.833Z,24.17
2018-02-06T23:13:31.057Z,22.47
2018-02-06T23:16:34.632Z,25.10
2018-02-06T23:19:37.929Z,21.97
2018-02-06T23:22:41.215Z,23.97
2018-02-06T23:25:44.570Z,26.80
2018-02-06T23:28:47.860Z,23.35
2018-02-06T23:31:51.141Z,28.62
2018-02-06T23:34:55.190Z,32.80
2018-02-06T23:37:58.489Z,19.47
2018-02-06T23:41:01.910Z,25.87
2018-02-06T23:44:05.206Z,17.60
2018-02-06T23:47:08.475Z,21.83
2018-02-06T23:50:11.759Z,21.90
2018-02-06T23:53:15.043Z,24.47
2018-02-06T23:56:18.481Z,17.37
2018-02-06T23:59:21.777Z,18.58
